BRYA4: Kings River Nr Berryville, AR

Data processed at Mon Apr 24 2017 21:24


All information presented herein is the property of the government of the United States of America and may be revised or deleted at any time without prior notice.
Dissemination of this information without the expressed written consent of the Public Affairs Office, Tulsa District U.S. Army Corps of Engineers is strictly prohibited.
These data are gathered electronically and, as presented, have not undergone any form of quality control. These data are not guaranteed to be valid or correct.
Go to home page.
Go to station list.
Go to station map.

Downstream station:


Previous Day
Next Day
Current Day
    
SHEF ID:       BRYA4     Kings River near Berryville, AR
STATION TYPE:  

               PRECIP     STAGE  RIV-FLOW  BAT-LOAD
                   in        ft       cfs      volt
              Ccp-Rev   Ccp-Rev   Ccp-Rev   Ccp-Rev
(US/Central)
04/24 00:00      0.00      7.93      4353     12.71
04/24 01:00      0.00      7.84      4251     12.71
04/24 02:00      0.00      7.79      4201     12.71
04/24 03:00      0.00      7.73      4140     12.65
04/24 04:00      0.00      7.67      4080     12.65
04/24 05:00      0.00      7.59      3988     12.65
04/24 06:00      0.00      7.55      3943     12.60
04/24 07:00      0.00      7.49      3876     12.60
04/24 08:00      0.00      7.44      3820     12.60
04/24 09:00      0.00      7.41      3787     12.65
04/24 10:00      0.00      7.36      3722     12.83
04/24 11:00      0.00      7.32      3678     13.59
04/24 12:00      0.00      7.27      3624     13.53
04/24 13:00      0.00      7.21      3559     13.53
04/24 14:00      0.00      7.15      3484     13.48
04/24 15:00      0.00      7.10      3431     13.42
04/24 16:00      0.00      7.06      3389     13.42
04/24 17:00      0.00      7.03      3358     13.30
04/24 18:00      0.00      6.99      3318     13.18
04/24 19:00      0.00      6.95      3277     13.12
04/24 20:00      0.00      6.91      3226     12.89
04/24 21:00      0.00      6.87      3186     12.83
04/24 22:00      ----      ----      ----      ----
04/24 23:00      ----      ----      ----      ----